sensor_id;sensor_type;location;lat;lon;timestamp;pressure;altitude;pressure_sealevel;temperature;humidity
54248;BME280;40161;39.768;2.722;2022-09-09T00:00:38;101177.34;;;25.66;65.50
54248;BME280;40161;39.768;2.722;2022-09-09T00:03:51;101181.78;;;25.76;64.83
54248;BME280;40161;39.768;2.722;2022-09-09T00:06:08;101157.63;;;25.56;64.86
54248;BME280;40161;39.768;2.722;2022-09-09T00:17:01;101192.78;;;25.39;64.70
54248;BME280;40161;39.768;2.722;2022-09-09T00:22:21;101192.63;;;25.33;64.10
54248;BME280;40161;39.768;2.722;2022-09-09T00:24:52;101185.28;;;25.36;63.53
54248;BME280;40161;39.768;2.722;2022-09-09T00:29:56;101183.41;;;25.33;63.25
54248;BME280;40161;39.768;2.722;2022-09-09T00:32:28;101170.34;;;25.17;63.11
54248;BME280;40161;39.768;2.722;2022-09-09T00:34:58;101177.84;;;25.20;63.64
54248;BME280;40161;39.768;2.722;2022-09-09T00:37:26;101179.00;;;25.10;63.37
54248;BME280;40161;39.768;2.722;2022-09-09T00:39:53;101181.47;;;25.08;62.42
54248;BME280;40161;39.768;2.722;2022-09-09T00:43:08;101175.19;;;25.04;64.06
54248;BME280;40161;39.768;2.722;2022-09-09T00:45:59;101172.44;;;24.91;64.39
54248;BME280;40161;39.768;2.722;2022-09-09T00:48:35;101168.66;;;24.85;65.26
54248;BME280;40161;39.768;2.722;2022-09-09T00:51:10;101168.31;;;24.83;65.54
54248;BME280;40161;39.768;2.722;2022-09-09T00:56:57;101173.03;;;24.86;66.32
54248;BME280;40161;39.768;2.722;2022-09-09T00:59:50;101172.69;;;24.84;66.49
54248;BME280;40161;39.768;2.722;2022-09-09T01:02:43;101176.59;;;24.86;66.36
54248;BME280;40161;39.768;2.722;2022-09-09T01:07:49;101168.59;;;24.98;64.84
54248;BME280;40161;39.768;2.722;2022-09-09T01:10:41;101166.59;;;24.98;64.30
54248;BME280;40161;39.768;2.722;2022-09-09T01:13:16;101165.25;;;24.90;63.76
54248;BME280;40161;39.768;2.722;2022-09-09T01:15:45;101176.41;;;24.81;63.67
54248;BME280;40161;39.768;2.722;2022-09-09T01:18:14;101164.31;;;24.71;63.58
54248;BME280;40161;39.768;2.722;2022-09-09T01:26:56;101154.38;;;24.57;63.80
54248;BME280;40161;39.768;2.722;2022-09-09T01:29:24;101160.09;;;24.54;63.50
54248;BME280;40161;39.768;2.722;2022-09-09T01:31:56;101147.88;;;24.22;64.59
54248;BME280;40161;39.768;2.722;2022-09-09T01:34:24;101166.84;;;24.44;63.81
54248;BME280;40161;39.768;2.722;2022-09-09T01:37:03;101175.47;;;24.49;63.88
54248;BME280;40161;39.768;2.722;2022-09-09T01:39:33;101160.78;;;24.45;62.25
54248;BME280;40161;39.768;2.722;2022-09-09T01:42:01;101163.56;;;24.32;61.97
54248;BME280;40161;39.768;2.722;2022-09-09T01:44:27;101165.81;;;24.37;61.95
54248;BME280;40161;39.768;2.722;2022-09-09T01:46:53;101161.47;;;24.36;62.04
54248;BME280;40161;39.768;2.722;2022-09-09T01:49:19;101151.72;;;24.41;61.07
54248;BME280;40161;39.768;2.722;2022-09-09T01:51:47;101161.00;;;24.51;61.42
54248;BME280;40161;39.768;2.722;2022-09-09T01:54:13;101157.41;;;24.50;60.81
54248;BME280;40161;39.768;2.722;2022-09-09T02:02:16;101164.16;;;24.40;61.58
54248;BME280;40161;39.768;2.722;2022-09-09T02:04:49;101138.03;;;24.17;61.77
54248;BME280;40161;39.768;2.722;2022-09-09T02:10:09;101157.88;;;24.10;63.42
54248;BME280;40161;39.768;2.722;2022-09-09T02:12:40;101162.91;;;24.15;62.45
54248;BME280;40161;39.768;2.722;2022-09-09T02:15:30;101133.13;;;24.09;62.06
54248;BME280;40161;39.768;2.722;2022-09-09T02:17:58;101130.06;;;24.16;61.93
54248;BME280;40161;39.768;2.722;2022-09-09T02:20:26;101153.06;;;24.11;61.89
54248;BME280;40161;39.768;2.722;2022-09-09T02:22:53;101153.72;;;24.15;61.59
54248;BME280;40161;39.768;2.722;2022-09-09T02:25:22;101165.16;;;24.21;61.10
54248;BME280;40161;39.768;2.722;2022-09-09T02:27:50;101165.03;;;24.24;59.92
54248;BME280;40161;39.768;2.722;2022-09-09T02:30:17;101150.38;;;24.20;60.26
54248;BME280;40161;39.768;2.722;2022-09-09T02:32:44;101156.63;;;24.11;59.54
54248;BME280;40161;39.768;2.722;2022-09-09T02:35:17;101163.13;;;24.08;60.13
54248;BME280;40161;39.768;2.722;2022-09-09T02:37:46;101147.78;;;24.00;60.49
54248;BME280;40161;39.768;2.722;2022-09-09T02:40:12;101149.47;;;24.10;61.68
54248;BME280;40161;39.768;2.722;2022-09-09T02:42:42;101161.22;;;24.18;61.84
54248;BME280;40161;39.768;2.722;2022-09-09T02:45:11;101152.63;;;24.00;62.74
54248;BME280;40161;39.768;2.722;2022-09-09T02:47:47;101158.44;;;23.92;62.98
54248;BME280;40161;39.768;2.722;2022-09-09T02:50:29;101151.94;;;23.96;63.62
54248;BME280;40161;39.768;2.722;2022-09-09T02:53:16;101162.59;;;24.13;64.17
54248;BME280;40161;39.768;2.722;2022-09-09T02:56:00;101158.34;;;24.09;63.12
54248;BME280;40161;39.768;2.722;2022-09-09T02:58:27;101151.06;;;23.99;62.40
54248;BME280;40161;39.768;2.722;2022-09-09T03:00:53;101146.44;;;24.05;62.50
54248;BME280;40161;39.768;2.722;2022-09-09T03:03:19;101158.66;;;24.11;62.51
54248;BME280;40161;39.768;2.722;2022-09-09T03:05:46;101165.84;;;24.12;62.08
54248;BME280;40161;39.768;2.722;2022-09-09T03:08:12;101153.06;;;24.11;61.56
54248;BME280;40161;39.768;2.722;2022-09-09T03:10:39;101142.63;;;23.73;61.74
54248;BME280;40161;39.768;2.722;2022-09-09T03:13:04;101159.78;;;23.88;61.36
54248;BME280;40161;39.768;2.722;2022-09-09T03:15:34;101161.91;;;23.84;61.67
54248;BME280;40161;39.768;2.722;2022-09-09T03:18:00;101159.78;;;23.88;60.96
54248;BME280;40161;39.768;2.722;2022-09-09T03:20:28;101166.97;;;23.89;61.27
54248;BME280;40161;39.768;2.722;2022-09-09T03:22:55;101152.72;;;23.83;61.58
54248;BME280;40161;39.768;2.722;2022-09-09T03:25:21;101142.63;;;23.73;61.44
54248;BME280;40161;39.768;2.722;2022-09-09T03:27:49;101153.38;;;23.87;61.13
54248;BME280;40161;39.768;2.722;2022-09-09T03:30:15;101151.28;;;23.79;61.20
54248;BME280;40161;39.768;2.722;2022-09-09T03:32:41;101160.47;;;23.79;61.72
54248;BME280;40161;39.768;2.722;2022-09-09T03:35:06;101159.88;;;23.84;62.00
54248;BME280;40161;39.768;2.722;2022-09-09T03:37:32;101150.81;;;23.80;61.93
54248;BME280;40161;39.768;2.722;2022-09-09T03:39:58;101150.09;;;23.63;62.35
54248;BME280;40161;39.768;2.722;2022-09-09T03:42:25;101162.47;;;23.79;62.66
54248;BME280;40161;39.768;2.722;2022-09-09T03:44:50;101163.25;;;23.79;62.62
54248;BME280;40161;39.768;2.722;2022-09-09T03:47:20;101162.88;;;23.64;62.56
54248;BME280;40161;39.768;2.722;2022-09-09T03:49:47;101159.84;;;23.59;62.47
54248;BME280;40161;39.768;2.722;2022-09-09T03:52:14;101161.19;;;23.67;62.25
54248;BME280;40161;39.768;2.722;2022-09-09T03:54:40;101166.38;;;23.68;62.59
54248;BME280;40161;39.768;2.722;2022-09-09T03:57:06;101152.69;;;23.58;63.56
54248;BME280;40161;39.768;2.722;2022-09-09T03:59:32;101154.81;;;23.66;63.29
54248;BME280;40161;39.768;2.722;2022-09-09T04:01:57;101150.13;;;23.76;63.09
54248;BME280;40161;39.768;2.722;2022-09-09T04:04:24;101149.28;;;23.50;63.53
54248;BME280;40161;39.768;2.722;2022-09-09T04:06:51;101156.78;;;23.40;64.24
54248;BME280;40161;39.768;2.722;2022-09-09T04:09:17;101143.88;;;23.43;63.31
54248;BME280;40161;39.768;2.722;2022-09-09T04:11:42;101152.00;;;23.54;63.10
54248;BME280;40161;39.768;2.722;2022-09-09T04:14:08;101155.59;;;23.54;63.31
54248;BME280;40161;39.768;2.722;2022-09-09T04:16:34;101160.31;;;23.57;63.88
54248;BME280;40161;39.768;2.722;2022-09-09T04:19:02;101166.44;;;23.52;65.05
54248;BME280;40161;39.768;2.722;2022-09-09T04:21:30;101159.28;;;23.51;65.21
54248;BME280;40161;39.768;2.722;2022-09-09T04:23:55;101156.47;;;23.51;65.31
54248;BME280;40161;39.768;2.722;2022-09-09T04:26:21;101152.88;;;23.51;65.26
54248;BME280;40161;39.768;2.722;2022-09-09T04:28:47;101146.16;;;23.48;65.45
54248;BME280;40161;39.768;2.722;2022-09-09T04:31:16;101149.88;;;23.58;64.90
54248;BME280;40161;39.768;2.722;2022-09-09T04:33:43;101146.03;;;23.52;65.03
54248;BME280;40161;39.768;2.722;2022-09-09T04:36:09;101145.38;;;23.48;65.51
54248;BME280;40161;39.768;2.722;2022-09-09T04:38:35;101149.38;;;23.34;66.27
54248;BME280;40161;39.768;2.722;2022-09-09T04:41:01;101150.38;;;23.40;66.25
54248;BME280;40161;39.768;2.722;2022-09-09T04:43:26;101161.94;;;23.42;66.03
54248;BME280;40161;39.768;2.722;2022-09-09T04:45:52;101147.03;;;23.45;65.57
54248;BME280;40161;39.768;2.722;2022-09-09T04:48:19;101161.28;;;23.51;65.67
54248;BME280;40161;39.768;2.722;2022-09-09T04:50:54;101163.28;;;23.50;65.91
54248;BME280;40161;39.768;2.722;2022-09-09T04:53:19;101159.59;;;23.53;66.09
54248;BME280;40161;39.768;2.722;2022-09-09T04:55:46;101161.28;;;23.51;66.01
54248;BME280;40161;39.768;2.722;2022-09-09T04:58:11;101154.22;;;23.46;65.69
54248;BME280;40161;39.768;2.722;2022-09-09T05:00:37;101155.47;;;23.58;66.10
54248;BME280;40161;39.768;2.722;2022-09-09T05:03:06;101159.06;;;23.58;65.58
54248;BME280;40161;39.768;2.722;2022-09-09T05:05:33;101159.94;;;23.55;65.81
54248;BME280;40161;39.768;2.722;2022-09-09T05:08:05;101167.88;;;23.57;65.94
54248;BME280;40161;39.768;2.722;2022-09-09T05:10:32;101171.81;;;23.59;66.13
54248;BME280;40161;39.768;2.722;2022-09-09T05:12:58;101159.16;;;23.55;65.78
54248;BME280;40161;39.768;2.722;2022-09-09T05:15:24;101168.34;;;23.55;66.14
54248;BME280;40161;39.768;2.722;2022-09-09T05:17:49;101159.47;;;23.44;66.17
54248;BME280;40161;39.768;2.722;2022-09-09T05:20:16;101166.19;;;23.46;66.65
54248;BME280;40161;39.768;2.722;2022-09-09T05:22:42;101162.59;;;23.46;66.97
54248;BME280;40161;39.768;2.722;2022-09-09T05:25:07;101172.34;;;23.41;67.29
54248;BME280;40161;39.768;2.722;2022-09-09T05:27:34;101165.19;;;23.40;67.46
54248;BME280;40161;39.768;2.722;2022-09-09T05:29:59;101174.84;;;23.52;67.87
54248;BME280;40161;39.768;2.722;2022-09-09T05:32:25;101165.09;;;23.44;67.86
54248;BME280;40161;39.768;2.722;2022-09-09T05:34:51;101166.69;;;23.58;67.26
54248;BME280;40161;39.768;2.722;2022-09-09T05:37:17;101166.78;;;23.54;67.78
54248;BME280;40161;39.768;2.722;2022-09-09T05:39:43;101153.88;;;23.44;67.62
54248;BME280;40161;39.768;2.722;2022-09-09T05:42:09;101171.31;;;23.35;68.15
54248;BME280;40161;39.768;2.722;2022-09-09T05:44:35;101181.59;;;23.26;69.28
54248;BME280;40161;39.768;2.722;2022-09-09T05:47:00;101178.09;;;23.21;70.01
54248;BME280;40161;39.768;2.722;2022-09-09T05:49:26;101183.09;;;23.30;69.62
54248;BME280;40161;39.768;2.722;2022-09-09T05:51:52;101187.78;;;23.33;69.34
54248;BME280;40161;39.768;2.722;2022-09-09T05:54:18;101182.00;;;23.40;69.19
54248;BME280;40161;39.768;2.722;2022-09-09T05:56:43;101182.22;;;23.46;68.64
54248;BME280;40161;39.768;2.722;2022-09-09T05:59:10;101192.88;;;23.51;68.41
54248;BME280;40161;39.768;2.722;2022-09-09T06:01:37;101196.47;;;23.52;68.90
54248;BME280;40161;39.768;2.722;2022-09-09T06:04:06;101200.72;;;23.56;69.13
54248;BME280;40161;39.768;2.722;2022-09-09T06:06:34;101202.50;;;23.50;69.48
54248;BME280;40161;39.768;2.722;2022-09-09T06:12:26;101204.19;;;23.60;69.67
54248;BME280;40161;39.768;2.722;2022-09-09T06:14:52;101203.78;;;23.62;69.69
54248;BME280;40161;39.768;2.722;2022-09-09T06:17:19;101197.81;;;23.60;69.67
54248;BME280;40161;39.768;2.722;2022-09-09T06:23:06;101208.19;;;23.76;70.29
54248;BME280;40161;39.768;2.722;2022-09-09T06:25:32;101218.94;;;23.77;69.87
54248;BME280;40161;39.768;2.722;2022-09-09T06:27:59;101212.34;;;23.71;70.62
54248;BME280;40161;39.768;2.722;2022-09-09T06:30:24;101222.41;;;23.68;70.68
54248;BME280;40161;39.768;2.722;2022-09-09T06:32:50;101217.69;;;23.65;70.89
54248;BME280;40161;39.768;2.722;2022-09-09T06:38:37;101218.91;;;23.64;71.03
54248;BME280;40161;39.768;2.722;2022-09-09T06:41:03;101217.59;;;23.69;71.44
54248;BME280;40161;39.768;2.722;2022-09-09T06:43:31;101215.94;;;23.72;71.67
54248;BME280;40161;39.768;2.722;2022-09-09T06:45:59;101225.25;;;23.81;71.46
54248;BME280;40161;39.768;2.722;2022-09-09T06:48:26;101224.22;;;23.88;71.55
54248;BME280;40161;39.768;2.722;2022-09-09T06:51:19;101219.09;;;23.86;71.80
54248;BME280;40161;39.768;2.722;2022-09-09T06:53:47;101217.53;;;23.85;71.97
54248;BME280;40161;39.768;2.722;2022-09-09T06:56:25;101216.19;;;23.90;71.72
54248;BME280;40161;39.768;2.722;2022-09-09T06:58:52;101211.34;;;23.90;71.34
54248;BME280;40161;39.768;2.722;2022-09-09T07:01:20;101206.22;;;23.89;71.16
54248;BME280;40161;39.768;2.722;2022-09-09T07:03:53;101226.41;;;24.09;71.35
54248;BME280;40161;39.768;2.722;2022-09-09T07:06:30;101219.09;;;24.12;71.40
54248;BME280;40161;39.768;2.722;2022-09-09T07:08:58;101225.41;;;24.16;71.79
54248;BME280;40161;39.768;2.722;2022-09-09T07:11:27;101233.13;;;24.25;71.88
54248;BME280;40161;39.768;2.722;2022-09-09T07:13:54;101229.09;;;24.26;71.67
54248;BME280;40161;39.768;2.722;2022-09-09T07:16:21;101227.28;;;24.32;71.81
54248;BME280;40161;39.768;2.722;2022-09-09T07:18:47;101219.66;;;24.32;71.72
54248;BME280;40161;39.768;2.722;2022-09-09T07:21:16;101229.47;;;24.41;71.79
54248;BME280;40161;39.768;2.722;2022-09-09T07:23:42;101221.59;;;24.48;71.18
54248;BME280;40161;39.768;2.722;2022-09-09T07:26:15;101220.69;;;24.51;71.12
54248;BME280;40161;39.768;2.722;2022-09-09T07:28:42;101225.59;;;24.60;71.00
54248;BME280;40161;39.768;2.722;2022-09-09T07:31:13;101220.22;;;24.66;71.10
54248;BME280;40161;39.768;2.722;2022-09-09T07:33:40;101226.19;;;24.68;70.36
54248;BME280;40161;39.768;2.722;2022-09-09T07:36:10;101235.91;;;24.76;69.60
54248;BME280;40161;39.768;2.722;2022-09-09T07:38:44;101232.53;;;24.81;69.23
54248;BME280;40161;39.768;2.722;2022-09-09T07:41:13;101230.06;;;24.83;68.25
54248;BME280;40161;39.768;2.722;2022-09-09T07:43:41;101240.13;;;24.93;67.87
54248;BME280;40161;39.768;2.722;2022-09-09T07:46:08;101239.13;;;25.00;67.32
54248;BME280;40161;39.768;2.722;2022-09-09T07:48:34;101236.97;;;25.04;67.17
54248;BME280;40161;39.768;2.722;2022-09-09T07:51:09;101219.59;;;24.96;66.48
54248;BME280;40161;39.768;2.722;2022-09-09T07:56:57;101247.94;;;25.24;64.60
54248;BME280;40161;39.768;2.722;2022-09-09T08:06:08;101244.69;;;25.47;64.57
54248;BME280;40161;39.768;2.722;2022-09-09T08:08:35;101257.28;;;25.65;64.83
54248;BME280;40161;39.768;2.722;2022-09-09T08:11:05;101265.13;;;25.70;65.22
54248;BME280;40161;39.768;2.722;2022-09-09T08:13:33;101261.16;;;25.80;66.20
54248;BME280;40161;39.768;2.722;2022-09-09T08:16:13;101263.06;;;25.83;66.82
54248;BME280;40161;39.768;2.722;2022-09-09T08:18:39;101257.94;;;25.91;67.49
54248;BME280;40161;39.768;2.722;2022-09-09T08:21:10;101270.94;;;25.97;68.42
54248;BME280;40161;39.768;2.722;2022-09-09T08:23:41;101247.03;;;25.93;68.42
54248;BME280;40161;39.768;2.722;2022-09-09T08:26:13;101256.34;;;26.12;68.34
54248;BME280;40161;39.768;2.722;2022-09-09T08:28:40;101268.41;;;26.21;68.04
54248;BME280;40161;39.768;2.722;2022-09-09T08:31:18;101269.72;;;26.30;67.92
54248;BME280;40161;39.768;2.722;2022-09-09T08:33:44;101261.91;;;26.34;67.74
54248;BME280;40161;39.768;2.722;2022-09-09T08:36:16;101251.78;;;26.36;67.83
54248;BME280;40161;39.768;2.722;2022-09-09T08:38:42;101267.78;;;26.48;67.27
54248;BME280;40161;39.768;2.722;2022-09-09T08:44:01;101236.31;;;26.41;66.84
54248;BME280;40161;39.768;2.722;2022-09-09T08:51:49;101274.78;;;26.84;66.39
54248;BME280;40161;39.768;2.722;2022-09-09T08:54:15;101267.25;;;26.90;66.07
54248;BME280;40161;39.768;2.722;2022-09-09T08:56:42;101247.25;;;26.88;65.45
54248;BME280;40161;39.768;2.722;2022-09-09T08:59:09;101262.28;;;27.04;65.46
54248;BME280;40161;39.768;2.722;2022-09-09T09:01:50;101225.66;;;26.85;65.01
54248;BME280;40161;39.768;2.722;2022-09-09T09:09:41;101269.66;;;27.38;65.20
54248;BME280;40161;39.768;2.722;2022-09-09T09:12:23;101268.25;;;27.42;65.17
54248;BME280;40161;39.768;2.722;2022-09-09T09:14:49;101265.59;;;27.48;65.57
54248;BME280;40161;39.768;2.722;2022-09-09T09:17:21;101269.03;;;27.52;66.33
54248;BME280;40161;39.768;2.722;2022-09-09T09:19:48;101263.22;;;27.56;66.59
54248;BME280;40161;39.768;2.722;2022-09-09T09:27:33;101283.22;;;28.04;65.19
54248;BME280;40161;39.768;2.722;2022-09-09T09:30:04;101266.78;;;28.35;63.38
54248;BME280;40161;39.768;2.722;2022-09-09T09:32:33;101274.03;;;28.36;62.72
54248;BME280;40161;39.768;2.722;2022-09-09T09:35:02;101282.19;;;28.34;61.77
54248;BME280;40161;39.768;2.722;2022-09-09T09:37:34;101281.50;;;28.49;62.23
54248;BME280;40161;39.768;2.722;2022-09-09T09:40:17;101279.66;;;28.36;62.08
54248;BME280;40161;39.768;2.722;2022-09-09T09:42:55;101261.66;;;28.25;61.28
54248;BME280;40161;39.768;2.722;2022-09-09T09:45:44;101287.81;;;28.44;61.47
54248;BME280;40161;39.768;2.722;2022-09-09T09:48:12;101289.81;;;28.52;60.70
54248;BME280;40161;39.768;2.722;2022-09-09T09:53:37;101281.78;;;28.60;61.26
54248;BME280;40161;39.768;2.722;2022-09-09T09:56:06;101287.31;;;28.78;60.70
54248;BME280;40161;39.768;2.722;2022-09-09T09:58:50;101282.28;;;28.82;60.99
54248;BME280;40161;39.768;2.722;2022-09-09T10:01:32;101285.94;;;28.98;60.69
54248;BME280;40161;39.768;2.722;2022-09-09T10:04:13;101273.56;;;28.95;60.80
54248;BME280;40161;39.768;2.722;2022-09-09T10:06:40;101283.59;;;28.96;60.37
54248;BME280;40161;39.768;2.722;2022-09-09T10:09:38;101284.88;;;28.95;61.83
54248;BME280;40161;39.768;2.722;2022-09-09T10:29:40;101289.22;;;29.05;61.26
54248;BME280;40161;39.768;2.722;2022-09-09T10:38:42;101292.16;;;29.11;60.90
54248;BME280;40161;39.768;2.722;2022-09-09T10:41:29;101261.00;;;28.96;61.04
54248;BME280;40161;39.768;2.722;2022-09-09T10:47:09;101300.63;;;29.11;61.39
54248;BME280;40161;39.768;2.722;2022-09-09T10:52:38;101293.63;;;29.21;60.99
54248;BME280;40161;39.768;2.722;2022-09-09T10:55:12;101295.66;;;29.06;61.18
54248;BME280;40161;39.768;2.722;2022-09-09T10:57:53;101297.03;;;29.10;61.57
54248;BME280;40161;39.768;2.722;2022-09-09T11:00:22;101261.94;;;29.02;61.59
54248;BME280;40161;39.768;2.722;2022-09-09T11:03:06;101284.16;;;29.09;61.79
54248;BME280;40161;39.768;2.722;2022-09-09T11:08:33;101280.91;;;29.26;60.46
54248;BME280;40161;39.768;2.722;2022-09-09T11:11:25;101288.88;;;29.27;61.03
54248;BME280;40161;39.768;2.722;2022-09-09T11:18:46;101291.94;;;29.39;61.02
54248;BME280;40161;39.768;2.722;2022-09-09T11:21:32;101291.53;;;29.31;61.23
54248;BME280;40161;39.768;2.722;2022-09-09T11:24:06;101286.19;;;29.33;60.91
54248;BME280;40161;39.768;2.722;2022-09-09T11:26:50;101289.59;;;29.37;60.48
54248;BME280;40161;39.768;2.722;2022-09-09T11:38:36;101270.66;;;29.28;61.15
54248;BME280;40161;39.768;2.722;2022-09-09T11:41:07;101239.66;;;28.95;61.07
54248;BME280;40161;39.768;2.722;2022-09-09T11:43:47;101270.75;;;29.19;61.21
54248;BME280;40161;39.768;2.722;2022-09-09T11:46:15;101299.41;;;29.27;61.78
54248;BME280;40161;39.768;2.722;2022-09-09T11:48:57;101293.97;;;29.38;61.04
54248;BME280;40161;39.768;2.722;2022-09-09T11:51:28;101294.25;;;29.25;60.24
54248;BME280;40161;39.768;2.722;2022-09-09T11:56:47;101294.41;;;29.46;61.26
54248;BME280;40161;39.768;2.722;2022-09-09T11:59:31;101273.84;;;29.21;61.10
54248;BME280;40161;39.768;2.722;2022-09-09T12:02:01;101305.59;;;29.40;61.65
54248;BME280;40161;39.768;2.722;2022-09-09T12:04:31;101299.53;;;29.32;60.48
54248;BME280;40161;39.768;2.722;2022-09-09T12:07:00;101305.56;;;29.25;60.67
54248;BME280;40161;39.768;2.722;2022-09-09T12:15:20;101297.28;;;29.22;62.19
54248;BME280;40161;39.768;2.722;2022-09-09T12:17:57;101274.84;;;29.18;61.60
54248;BME280;40161;39.768;2.722;2022-09-09T12:23:22;101294.56;;;29.03;61.73
54248;BME280;40161;39.768;2.722;2022-09-09T12:26:31;101301.25;;;29.15;61.80
54248;BME280;40161;39.768;2.722;2022-09-09T12:34:16;101276.41;;;29.19;61.86
54248;BME280;40161;39.768;2.722;2022-09-09T12:36:47;101238.91;;;28.95;61.34
54248;BME280;40161;39.768;2.722;2022-09-09T12:39:27;101275.44;;;29.22;60.92
54248;BME280;40161;39.768;2.722;2022-09-09T12:41:54;101274.47;;;29.25;61.19
54248;BME280;40161;39.768;2.722;2022-09-09T12:44:22;101277.19;;;29.20;60.35
54248;BME280;40161;39.768;2.722;2022-09-09T12:46:49;101269.69;;;29.31;60.35
54248;BME280;40161;39.768;2.722;2022-09-09T12:51:51;101283.41;;;29.24;61.01
54248;BME280;40161;39.768;2.722;2022-09-09T12:54:19;101242.00;;;28.97;61.33
54248;BME280;40161;39.768;2.722;2022-09-09T12:56:48;101245.00;;;28.93;61.40
54248;BME280;40161;39.768;2.722;2022-09-09T12:59:34;101272.44;;;29.41;60.51
54248;BME280;40161;39.768;2.722;2022-09-09T13:02:00;101262.09;;;29.38;60.26
54248;BME280;40161;39.768;2.722;2022-09-09T13:04:25;101258.38;;;29.31;60.46
54248;BME280;40161;39.768;2.722;2022-09-09T13:06:51;101215.78;;;29.20;60.08
54248;BME280;40161;39.768;2.722;2022-09-09T13:09:18;101261.16;;;29.55;60.01
54248;BME280;40161;39.768;2.722;2022-09-09T13:11:54;101256.59;;;29.58;59.50
54248;BME280;40161;39.768;2.722;2022-09-09T13:14:35;101262.84;;;29.62;59.28
54248;BME280;40161;39.768;2.722;2022-09-09T13:17:04;101262.63;;;29.51;59.09
54248;BME280;40161;39.768;2.722;2022-09-09T13:19:34;101262.13;;;29.52;59.47
54248;BME280;40161;39.768;2.722;2022-09-09T13:22:12;101252.09;;;29.51;59.59
54248;BME280;40161;39.768;2.722;2022-09-09T13:24:38;101273.28;;;29.56;59.82
54248;BME280;40161;39.768;2.722;2022-09-09T13:27:23;101238.44;;;29.50;58.85
54248;BME280;40161;39.768;2.722;2022-09-09T13:29:53;101265.22;;;29.64;58.55
54248;BME280;40161;39.768;2.722;2022-09-09T13:32:23;101266.59;;;29.44;59.04
54248;BME280;40161;39.768;2.722;2022-09-09T13:34:55;101243.41;;;29.40;59.42
54248;BME280;40161;39.768;2.722;2022-09-09T13:37:38;101258.31;;;29.55;58.74
54248;BME280;40161;39.768;2.722;2022-09-09T13:43:28;101266.31;;;29.42;59.29
54248;BME280;40161;39.768;2.722;2022-09-09T13:46:03;101264.63;;;29.60;59.09
54248;BME280;40161;39.768;2.722;2022-09-09T13:51:51;101246.06;;;29.58;58.50
54248;BME280;40161;39.768;2.722;2022-09-09T13:54:20;101245.66;;;29.51;58.82
54248;BME280;40161;39.768;2.722;2022-09-09T13:56:46;101238.84;;;29.43;59.20
54248;BME280;40161;39.768;2.722;2022-09-09T13:59:14;101207.25;;;29.29;58.80
54248;BME280;40161;39.768;2.722;2022-09-09T14:01:40;101239.94;;;29.60;59.59
54248;BME280;40161;39.768;2.722;2022-09-09T14:04:06;101236.22;;;29.54;59.27
54248;BME280;40161;39.768;2.722;2022-09-09T14:06:34;101236.50;;;29.56;59.26
54248;BME280;40161;39.768;2.722;2022-09-09T14:09:04;101231.41;;;29.45;59.10
54248;BME280;40161;39.768;2.722;2022-09-09T14:11:31;101237.94;;;29.51;59.19
54248;BME280;40161;39.768;2.722;2022-09-09T14:13:57;101234.53;;;29.47;59.62
54248;BME280;40161;39.768;2.722;2022-09-09T14:16:23;101233.00;;;29.46;59.28
54248;BME280;40161;39.768;2.722;2022-09-09T14:18:49;101243.22;;;29.58;58.63
54248;BME280;40161;39.768;2.722;2022-09-09T14:21:14;101231.75;;;29.62;58.97
54248;BME280;40161;39.768;2.722;2022-09-09T14:23:41;101245.66;;;29.51;59.03
54248;BME280;40161;39.768;2.722;2022-09-09T14:26:07;101245.84;;;29.47;59.51
54248;BME280;40161;39.768;2.722;2022-09-09T14:28:34;101240.97;;;29.48;58.74
54248;BME280;40161;39.768;2.722;2022-09-09T14:31:01;101243.47;;;29.31;59.60
54248;BME280;40161;39.768;2.722;2022-09-09T14:33:27;101246.44;;;29.37;59.37
54248;BME280;40161;39.768;2.722;2022-09-09T14:35:58;101245.66;;;29.51;59.41
54248;BME280;40161;39.768;2.722;2022-09-09T14:38:25;101231.81;;;29.53;58.24
54248;BME280;40161;39.768;2.722;2022-09-09T14:40:51;101245.78;;;29.56;58.80
54248;BME280;40161;39.768;2.722;2022-09-09T14:43:16;101245.09;;;29.62;58.79
54248;BME280;40161;39.768;2.722;2022-09-09T14:45:42;101241.53;;;29.37;58.92
54248;BME280;40161;39.768;2.722;2022-09-09T14:48:08;101243.41;;;29.40;59.31
54248;BME280;40161;39.768;2.722;2022-09-09T14:50:34;101243.84;;;29.63;58.70
54248;BME280;40161;39.768;2.722;2022-09-09T14:53:02;101238.53;;;29.41;59.31
54248;BME280;40161;39.768;2.722;2022-09-09T14:55:27;101230.69;;;29.60;58.82
54248;BME280;40161;39.768;2.722;2022-09-09T14:58:04;101220.41;;;29.47;58.97
54248;BME280;40161;39.768;2.722;2022-09-09T15:00:31;101233.19;;;29.43;59.49
54248;BME280;40161;39.768;2.722;2022-09-09T15:02:58;101231.31;;;29.40;59.09
54248;BME280;40161;39.768;2.722;2022-09-09T15:05:24;101227.72;;;29.39;59.13
54248;BME280;40161;39.768;2.722;2022-09-09T15:07:50;101225.28;;;29.32;59.11
54248;BME280;40161;39.768;2.722;2022-09-09T15:10:16;101230.94;;;29.47;58.65
54248;BME280;40161;39.768;2.722;2022-09-09T15:12:43;101223.13;;;29.42;58.80
54248;BME280;40161;39.768;2.722;2022-09-09T15:15:09;101223.44;;;29.44;58.80
54248;BME280;40161;39.768;2.722;2022-09-09T15:17:35;101221.09;;;29.42;58.83
54248;BME280;40161;39.768;2.722;2022-09-09T15:20:04;101219.63;;;29.32;58.91
54248;BME280;40161;39.768;2.722;2022-09-09T15:22:33;101221.16;;;29.18;59.41
54248;BME280;40161;39.768;2.722;2022-09-09T15:25:01;101208.19;;;29.12;58.94
54248;BME280;40161;39.768;2.722;2022-09-09T15:27:27;101218.91;;;29.22;58.55
54248;BME280;40161;39.768;2.722;2022-09-09T15:29:52;101215.72;;;29.29;59.05
54248;BME280;40161;39.768;2.722;2022-09-09T15:32:18;101226.75;;;29.42;58.16
54248;BME280;40161;39.768;2.722;2022-09-09T15:34:44;101220.41;;;29.32;58.50